Time;durP1;ratioP1;P1;durP2;ratioP2;P2;SDS_P1;SDS_P2;PMS_P1;PMS_P2;Temp;Humidity;BMP_temperature;BMP_pressure;BME280_temperature;BME280_humidity;BME280_pressure;Samples;Min_cycle;Max_cycle;Signal;HPM_P1;HPM_P2
2022/09/11 00:00:51;;;;;;;1.27;0.50;;;15.30;99.90;;;;;;5053557;28;20362;-66
2022/09/11 00:03:23;;;;;;;5.32;0.70;;;15.10;99.90;;;;;;5052542;28;20416;-62
2022/09/11 00:05:50;;;;;;;0.65;0.40;;;15.10;99.90;;;;;;5053492;28;20045;-62
2022/09/11 00:08:18;;;;;;;3.42;0.40;;;15.10;99.90;;;;;;5052440;28;20432;-66
2022/09/11 00:10:47;;;;;;;2.13;0.35;;;15.00;99.90;;;;;;5051059;28;20036;-62
2022/09/11 00:13:21;;;;;;;1.48;0.47;;;15.00;99.90;;;;;;5051667;28;20095;-61
2022/09/11 00:15:50;;;;;;;0.85;0.50;;;14.60;99.90;;;;;;5058403;28;20048;-61
2022/09/11 00:18:22;;;;;;;2.13;0.50;;;14.50;99.90;;;;;;5050006;28;20141;-62
2022/09/11 00:20:56;;;;;;;1.08;0.40;;;14.50;99.90;;;;;;5051309;28;20052;-62
2022/09/11 00:23:25;;;;;;;4.40;0.40;;;14.70;99.90;;;;;;5051214;28;20456;-66
2022/09/11 00:25:52;;;;;;;1.77;0.30;;;14.80;99.90;;;;;;5036301;28;20114;-62
2022/09/11 00:28:24;;;;;;;2.70;0.77;;;14.90;99.90;;;;;;5052449;28;20047;-65
2022/09/11 00:31:06;;;;;;;1.00;0.40;;;14.90;99.90;;;;;;5053219;28;20040;-63
2022/09/11 00:33:32;;;;;;;1.63;0.60;;;15.00;99.90;;;;;;5052260;28;20059;-62
2022/09/11 00:36:02;;;;;;;2.75;0.52;;;15.00;99.90;;;;;;5052503;28;20049;-64
2022/09/11 00:38:32;;;;;;;0.93;0.20;;;14.90;99.90;;;;;;5053006;28;20386;-62
2022/09/11 00:41:00;;;;;;;2.25;0.25;;;14.90;99.90;;;;;;5052531;28;20045;-63
2022/09/11 00:43:28;;;;;;;1.23;0.15;;;14.80;99.90;;;;;;5051515;28;20033;-62
2022/09/11 00:46:00;;;;;;;1.65;0.38;;;14.70;99.90;;;;;;5050302;28;20049;-63
2022/09/11 00:48:30;;;;;;;2.15;0.55;;;14.50;99.90;;;;;;5052838;28;20048;-62
2022/09/11 00:51:00;;;;;;;0.73;0.43;;;14.40;99.90;;;;;;5052962;28;20044;-63
2022/09/11 00:53:29;;;;;;;1.13;0.40;;;14.40;99.90;;;;;;5049195;28;20661;-62
2022/09/11 00:56:01;;;;;;;7.07;0.40;;;14.50;99.90;;;;;;5051514;28;20053;-66
2022/09/11 00:58:33;;;;;;;1.80;0.45;;;14.50;99.90;;;;;;5049832;28;20382;-62
2022/09/11 01:00:59;;;;;;;6.13;0.30;;;14.50;99.90;;;;;;5050955;28;20504;-62
2022/09/11 01:03:26;;;;;;;0.45;0.20;;;14.50;99.90;;;;;;5050975;28;20037;-63
2022/09/11 01:05:53;;;;;;;2.15;0.50;;;14.60;99.90;;;;;;5050990;28;20041;-63
2022/09/11 01:08:20;;;;;;;2.63;0.35;;;14.50;99.90;;;;;;5052634;28;20040;-63
2022/09/11 01:11:16;;;;;;;2.33;0.40;;;14.50;99.90;;;;;;5055869;28;20083;-62
2022/09/11 01:14:04;;;;;;;3.00;0.30;;;14.40;99.90;;;;;;5053456;28;20397;-63
2022/09/11 01:16:53;;;;;;;1.85;0.45;;;14.40;99.90;;;;;;5054393;28;20126;-66
2022/09/11 01:19:40;;;;;;;0.80;0.25;;;14.40;99.90;;;;;;5055563;28;20057;-66
2022/09/11 01:22:30;;;;;;;0.82;0.30;;;14.40;99.90;;;;;;5055755;28;20045;-65
2022/09/11 01:25:16;;;;;;;5.07;0.90;;;14.40;99.90;;;;;;5054201;28;20048;-63
2022/09/11 01:27:57;;;;;;;2.53;0.50;;;14.40;99.90;;;;;;5054635;28;20093;-62
2022/09/11 01:30:30;;;;;;;1.08;0.40;;;14.30;99.90;;;;;;5052511;28;20049;-62
2022/09/11 01:33:02;;;;;;;0.57;0.30;;;;;;;;;;5054318;28;20049;-62
2022/09/11 01:36:05;;;;;;;1.40;0.30;;;14.20;99.90;;;;;;5051231;28;20036;-62
2022/09/11 01:38:50;;;;;;;2.90;0.47;;;14.20;99.90;;;;;;5046218;28;20102;-62
2022/09/11 01:41:28;;;;;;;3.83;1.00;;;14.10;99.90;;;;;;5055143;28;20143;-62
2022/09/11 01:44:07;;;;;;;5.25;0.30;;;14.10;99.90;;;;;;5055398;28;20044;-62
2022/09/11 01:46:40;;;;;;;0.85;0.45;;;14.00;99.90;;;;;;5053243;28;20412;-63
2022/09/11 01:49:10;;;;;;;1.17;0.40;;;13.90;99.90;;;;;;5054138;28;20091;-62
2022/09/11 01:51:38;;;;;;;0.93;0.50;;;14.00;99.90;;;;;;5053569;28;20528;-62
2022/09/11 01:54:09;;;;;;;1.65;0.40;;;14.00;99.90;;;;;;5054405;28;20443;-64
2022/09/11 01:56:40;;;;;;;4.95;0.80;;;14.00;99.90;;;;;;5053300;28;20049;-64
2022/09/11 01:59:10;;;;;;;0.30;0.28;;;14.00;99.90;;;;;;5048401;28;20131;-62
2022/09/11 02:01:41;;;;;;;0.30;0.30;;;13.90;99.90;;;;;;5048307;28;20040;-62
2022/09/11 02:04:19;;;;;;;1.45;0.30;;;14.00;99.90;;;;;;5055340;28;20041;-62
2022/09/11 02:06:47;;;;;;;0.82;0.40;;;13.80;99.90;;;;;;5054534;28;20053;-62
2022/09/11 02:09:18;;;;;;;0.30;0.20;;;13.70;99.90;;;;;;5054501;28;20052;-62
2022/09/11 02:11:48;;;;;;;1.42;0.40;;;13.80;99.90;;;;;;5054088;28;20526;-64
2022/09/11 02:14:42;;;;;;;4.82;0.30;;;13.90;99.90;;;;;;5066061;28;20052;-66
2022/09/11 02:17:32;;;;;;;0.45;0.30;;;14.00;99.90;;;;;;5066978;28;20090;-62
2022/09/11 02:19:59;;;;;;;0.80;0.30;;;14.20;99.90;;;;;;5063296;28;20060;-65
2022/09/11 02:22:26;;;;;;;0.45;0.32;;;14.20;99.90;;;;;;5055815;28;20036;-63
2022/09/11 02:24:54;;;;;;;1.17;0.40;;;14.30;99.90;;;;;;5054213;28;20040;-62
2022/09/11 02:27:24;;;;;;;3.15;0.35;;;14.30;99.90;;;;;;5068145;28;20517;-62
2022/09/11 02:29:52;;;;;;;3.50;0.40;;;14.20;99.90;;;;;;5070986;28;20049;-62
2022/09/11 02:32:19;;;;;;;1.27;0.50;;;14.20;99.90;;;;;;5049752;28;20488;-62
2022/09/11 02:34:47;;;;;;;3.97;0.30;;;14.20;99.90;;;;;;5053237;28;20029;-62
2022/09/11 02:37:22;;;;;;;1.23;0.30;;;14.00;99.90;;;;;;5053710;28;20045;-66
2022/09/11 02:40:06;;;;;;;2.10;0.30;;;14.00;99.90;;;;;;5050371;28;20709;-63
2022/09/11 02:43:22;;;;;;;0.60;0.30;;;13.90;99.90;;;;;;5054632;28;20504;-65
2022/09/11 02:46:03;;;;;;;0.20;0.20;;;13.90;99.90;;;;;;5035541;28;20043;-62
2022/09/11 02:49:02;;;;;;;0.47;0.40;;;13.90;99.90;;;;;;5054669;28;20036;-62
2022/09/11 02:51:37;;;;;;;0.55;0.32;;;14.00;99.90;;;;;;5055183;28;20131;-62
2022/09/11 02:54:21;;;;;;;0.43;0.40;;;14.00;99.90;;;;;;5074067;28;20075;-62
2022/09/11 02:57:18;;;;;;;0.90;0.43;;;13.90;99.90;;;;;;5073015;28;20115;-62
2022/09/11 02:59:59;;;;;;;2.13;0.52;;;13.90;99.90;;;;;;5057897;28;20083;-63
2022/09/11 03:02:27;;;;;;;1.23;0.50;;;13.80;99.90;;;;;;5054106;28;20392;-67
2022/09/11 03:04:53;;;;;;;2.10;0.40;;;13.80;99.90;;;;;;5052144;28;20072;-66
2022/09/11 03:07:19;;;;;;;1.70;0.40;;;13.90;99.90;;;;;;5053601;28;20087;-64
2022/09/11 03:09:45;;;;;;;2.83;0.15;;;14.00;99.90;;;;;;5057775;28;20037;-66
2022/09/11 03:12:11;;;;;;;0.68;0.40;;;13.90;99.90;;;;;;5052133;28;20049;-67
2022/09/11 03:14:37;;;;;;;0.45;0.30;;;13.90;99.90;;;;;;5051183;28;20045;-66
2022/09/11 03:17:07;;;;;;;1.20;0.25;;;13.80;99.90;;;;;;5069413;28;20044;-66
2022/09/11 03:19:33;;;;;;;1.77;0.60;;;13.80;99.90;;;;;;5072120;28;20083;-67
2022/09/11 03:22:02;;;;;;;1.02;0.30;;;13.80;99.90;;;;;;5072354;28;20556;-66
2022/09/11 03:24:29;;;;;;;1.85;0.50;;;13.70;99.90;;;;;;5073225;28;20141;-65
2022/09/11 03:26:55;;;;;;;2.33;0.47;;;13.60;99.90;;;;;;5072575;28;20126;-67
2022/09/11 03:29:21;;;;;;;0.25;0.25;;;13.60;99.90;;;;;;5065488;28;20047;-66
2022/09/11 03:31:47;;;;;;;1.30;0.32;;;13.60;99.90;;;;;;5040563;28;20042;-67
2022/09/11 03:34:13;;;;;;;1.67;0.50;;;13.60;99.90;;;;;;5033538;28;20547;-68
2022/09/11 03:36:40;;;;;;;3.38;0.35;;;13.70;99.90;;;;;;5032310;28;20393;-66
2022/09/11 03:39:06;;;;;;;1.65;0.35;;;13.80;99.90;;;;;;5032546;28;20119;-66
2022/09/11 03:41:32;;;;;;;3.25;0.50;;;13.90;99.90;;;;;;5032546;28;20488;-66
2022/09/11 03:43:58;;;;;;;2.75;0.40;;;13.80;99.90;;;;;;5032288;28;20025;-65
2022/09/11 03:46:28;;;;;;;0.95;0.35;;;13.80;99.90;;;;;;5035974;28;20044;-66
2022/09/11 03:48:54;;;;;;;3.33;0.60;;;13.90;99.90;;;;;;5042367;28;20417;-67
2022/09/11 03:51:21;;;;;;;1.40;0.50;;;14.10;99.90;;;;;;5031876;28;20041;-65
2022/09/11 03:53:48;;;;;;;2.08;0.40;;;14.10;99.90;;;;;;5032736;28;20392;-67
2022/09/11 03:56:16;;;;;;;0.85;0.30;;;14.10;99.90;;;;;;5033878;28;20041;-67
2022/09/11 03:58:47;;;;;;;0.55;0.40;;;14.00;99.90;;;;;;5032470;28;20049;-64
2022/09/11 04:01:14;;;;;;;2.80;0.65;;;14.00;99.90;;;;;;5031598;28;20034;-67
2022/09/11 04:03:41;;;;;;;2.83;0.47;;;13.90;99.90;;;;;;5032837;28;20068;-67
2022/09/11 04:06:10;;;;;;;1.05;0.30;;;13.80;99.90;;;;;;5041268;28;20045;-67
2022/09/11 04:08:38;;;;;;;3.83;0.50;;;13.70;99.90;;;;;;5046206;28;20488;-66
2022/09/11 04:11:05;;;;;;;3.85;0.40;;;13.60;99.90;;;;;;5053226;28;20366;-63
2022/09/11 04:13:35;;;;;;;1.05;0.38;;;13.70;99.90;;;;;;5051635;28;20036;-67
2022/09/11 04:16:07;;;;;;;1.33;0.30;;;13.90;99.90;;;;;;5051426;28;20045;-65
2022/09/11 04:18:35;;;;;;;0.93;0.32;;;13.80;99.90;;;;;;5052191;28;20389;-66
2022/09/11 04:21:10;;;;;;;1.63;0.28;;;13.90;99.90;;;;;;5051939;28;20053;-62
2022/09/11 04:23:37;;;;;;;2.33;0.30;;;13.90;99.90;;;;;;5051592;28;20045;-64
2022/09/11 04:26:14;;;;;;;0.65;0.25;;;13.90;99.90;;;;;;5051087;28;20045;-66
2022/09/11 04:28:41;;;;;;;0.60;0.40;;;13.80;99.90;;;;;;5051635;28;20040;-66
2022/09/11 04:31:07;;;;;;;2.28;0.38;;;13.70;99.90;;;;;;5051494;28;20041;-65
2022/09/11 04:33:38;;;;;;;0.77;0.50;;;13.70;99.90;;;;;;5051466;28;20044;-66
2022/09/11 04:36:08;;;;;;;1.50;0.30;;;13.50;99.90;;;;;;5051236;28;20049;-66
2022/09/11 04:38:35;;;;;;;2.95;0.45;;;13.50;99.90;;;;;;5052350;28;20033;-66
2022/09/11 04:41:05;;;;;;;1.73;0.50;;;13.50;99.90;;;;;;5051127;28;20045;-66
2022/09/11 04:43:31;;;;;;;1.15;0.55;;;13.40;99.90;;;;;;5052432;28;20029;-63
2022/09/11 04:46:08;;;;;;;2.28;0.30;;;13.40;99.90;;;;;;5055638;28;20488;-65
2022/09/11 04:48:36;;;;;;;2.75;0.43;;;13.30;99.90;;;;;;5055281;28;20051;-67
2022/09/11 04:51:07;;;;;;;0.32;0.30;;;13.40;99.90;;;;;;5054690;28;20052;-64
2022/09/11 04:53:35;;;;;;;0.63;0.32;;;13.30;99.90;;;;;;5055429;28;20037;-63
2022/09/11 04:56:09;;;;;;;0.70;0.28;;;13.40;99.90;;;;;;5055009;28;20480;-62
2022/09/11 04:58:36;;;;;;;1.58;0.50;;;13.40;99.90;;;;;;5056306;28;20067;-65
2022/09/11 05:01:15;;;;;;;3.47;0.40;;;13.60;99.90;;;;;;5056993;28;20135;-67
2022/09/11 05:03:42;;;;;;;1.67;0.50;;;13.60;99.90;;;;;;5056560;28;20420;-63
2022/09/11 05:06:10;;;;;;;1.48;0.40;;;13.50;99.90;;;;;;5046102;28;20029;-64
2022/09/11 05:08:36;;;;;;;2.15;0.52;;;13.50;99.90;;;;;;5035903;28;20048;-63
2022/09/11 05:11:06;;;;;;;1.80;0.35;;;13.40;99.90;;;;;;5035576;28;20086;-66
2022/09/11 05:13:32;;;;;;;1.73;0.52;;;13.20;99.90;;;;;;5034940;28;20124;-63
2022/09/11 05:16:10;;;;;;;5.45;0.68;;;13.00;99.90;;;;;;5036513;28;20065;-66
2022/09/11 05:18:41;;;;;;;1.30;0.50;;;12.90;99.90;;;;;;5035726;28;20049;-63
2022/09/11 05:21:13;;;;;;;2.03;0.40;;;12.90;99.90;;;;;;5036868;28;20049;-67
2022/09/11 05:23:39;;;;;;;0.52;0.40;;;13.00;99.90;;;;;;5035331;28;20048;-67
2022/09/11 05:26:06;;;;;;;2.83;0.40;;;13.00;99.90;;;;;;5036692;28;20087;-66
2022/09/11 05:28:33;;;;;;;1.02;0.45;;;13.10;99.90;;;;;;5036618;28;20130;-67
2022/09/11 05:30:59;;;;;;;0.93;0.57;;;13.20;99.90;;;;;;5036562;28;20037;-63
2022/09/11 05:33:27;;;;;;;2.13;0.50;;;13.30;99.90;;;;;;5036598;28;20049;-63
2022/09/11 05:35:54;;;;;;;0.52;0.30;;;13.30;99.90;;;;;;5036446;28;20076;-68
2022/09/11 05:38:21;;;;;;;1.70;0.65;;;13.40;99.90;;;;;;5036485;28;20497;-63
2022/09/11 05:40:50;;;;;;;3.05;0.50;;;13.40;99.90;;;;;;5036536;28;20044;-63
2022/09/11 05:43:18;;;;;;;6.05;0.57;;;13.30;99.90;;;;;;5036448;28;20548;-68
2022/09/11 05:45:52;;;;;;;1.75;0.63;;;13.40;99.90;;;;;;5036224;28;20048;-63
2022/09/11 05:48:18;;;;;;;0.73;0.50;;;13.40;99.90;;;;;;5036288;28;20034;-62
2022/09/11 05:51:01;;;;;;;1.27;0.38;;;13.50;99.90;;;;;;5036316;28;20049;-66
2022/09/11 05:53:32;;;;;;;1.50;0.40;;;13.60;99.90;;;;;;5036175;28;20045;-62
2022/09/11 05:56:04;;;;;;;2.50;0.40;;;13.60;99.90;;;;;;5035072;28;20501;-67
2022/09/11 05:58:31;;;;;;;5.88;0.60;;;13.60;99.90;;;;;;5036162;28;20045;-62
2022/09/11 06:01:08;;;;;;;1.60;0.50;;;13.70;99.90;;;;;;5036367;28;20438;-67
2022/09/11 06:03:36;;;;;;;2.35;0.50;;;13.80;99.90;;;;;;5036085;28;20464;-67
2022/09/11 06:06:07;;;;;;;1.80;0.73;;;13.80;99.90;;;;;;5035939;28;20052;-64
2022/09/11 06:08:34;;;;;;;1.48;0.60;;;14.00;99.90;;;;;;5035779;28;20508;-64
2022/09/11 06:11:01;;;;;;;1.65;0.40;;;13.90;99.90;;;;;;5035770;28;20385;-64
2022/09/11 06:13:32;;;;;;;1.00;0.43;;;13.90;99.90;;;;;;5035874;28;20049;-67
2022/09/11 06:15:59;;;;;;;2.67;0.45;;;13.90;99.90;;;;;;5035866;28;20472;-65
2022/09/11 06:18:25;;;;;;;2.13;0.50;;;14.10;99.90;;;;;;5035542;28;20041;-68
2022/09/11 06:20:59;;;;;;;1.95;0.43;;;14.30;99.90;;;;;;5035399;28;20053;-62
2022/09/11 06:23:26;;;;;;;1.77;0.68;;;14.60;99.90;;;;;;5035720;28;20098;-68
2022/09/11 06:25:53;;;;;;;1.55;0.50;;;15.20;99.90;;;;;;5035856;28;20041;-63
2022/09/11 06:28:22;;;;;;;2.42;0.30;;;15.50;99.90;;;;;;5035397;28;20040;-63
2022/09/11 06:30:54;;;;;;;2.97;0.50;;;15.30;99.90;;;;;;5035346;28;20048;-67
2022/09/11 06:33:21;;;;;;;1.13;0.60;;;15.40;99.90;;;;;;5035416;28;20452;-67
2022/09/11 06:36:00;;;;;;;0.90;0.65;;;15.40;99.90;;;;;;5050544;28;20045;-63
2022/09/11 06:38:26;;;;;;;1.02;0.52;;;15.60;99.90;;;;;;5035351;28;20033;-68
2022/09/11 06:40:53;;;;;;;3.30;0.50;;;15.70;99.90;;;;;;5035376;28;20037;-63
2022/09/11 06:43:19;;;;;;;1.55;0.40;;;15.80;99.90;;;;;;5035332;28;20489;-63
2022/09/11 06:45:48;;;;;;;1.70;0.50;;;15.90;99.90;;;;;;5041950;28;20048;-63
2022/09/11 06:48:15;;;;;;;1.73;0.55;;;16.10;99.90;;;;;;5055054;28;20045;-67
2022/09/11 06:50:41;;;;;;;1.00;0.45;;;16.40;99.90;;;;;;5054870;28;20516;-67
2022/09/11 06:53:08;;;;;;;3.03;0.55;;;16.60;99.90;;;;;;5055154;28;20103;-69
2022/09/11 06:55:35;;;;;;;0.75;0.50;;;17.20;99.90;;;;;;5055139;28;20493;-66
2022/09/11 06:58:01;;;;;;;3.10;0.70;;;17.20;99.90;;;;;;5048247;28;20560;-64
2022/09/11 07:00:28;;;;;;;0.50;0.38;;;17.60;99.90;;;;;;5039159;28;20049;-63
2022/09/11 07:02:54;;;;;;;3.50;0.40;;;17.60;99.90;;;;;;5034877;28;20052;-64
2022/09/11 07:05:26;;;;;;;2.75;0.30;;;18.30;99.90;;;;;;5034774;28;20030;-66
2022/09/11 07:07:54;;;;;;;1.02;0.50;;;18.50;99.90;;;;;;5034519;28;20052;-64
2022/09/11 07:10:20;;;;;;;0.80;0.50;;;18.80;99.90;;;;;;5034487;28;20037;-65
2022/09/11 07:12:47;;;;;;;0.60;0.45;;;19.00;99.90;;;;;;5034553;28;20512;-65
2022/09/11 07:15:13;;;;;;;0.38;0.30;;;18.90;99.90;;;;;;5049752;28;20048;-68
2022/09/11 07:17:38;;;;;;;1.85;0.50;;;19.20;99.90;;;;;;5054257;28;20408;-68
2022/09/11 07:20:07;;;;;;;1.17;0.35;;;19.50;99.90;;;;;;5054420;28;20507;-68
2022/09/11 07:22:34;;;;;;;1.65;0.57;;;19.60;99.90;;;;;;5054615;28;20041;-63
2022/09/11 07:25:00;;;;;;;2.22;0.40;;;19.90;99.90;;;;;;5054315;28;20037;-63
2022/09/11 07:27:27;;;;;;;1.85;0.30;;;20.10;99.90;;;;;;5054373;28;20032;-63
2022/09/11 07:29:53;;;;;;;1.17;0.32;;;20.00;99.90;;;;;;5054439;28;20068;-68
2022/09/11 07:32:19;;;;;;;1.02;0.50;;;19.90;99.90;;;;;;5054357;28;20071;-64
2022/09/11 07:34:48;;;;;;;1.58;0.30;;;20.10;99.90;;;;;;5054341;28;20033;-69
2022/09/11 07:37:14;;;;;;;1.10;0.40;;;20.30;99.90;;;;;;5054091;28;20037;-68
2022/09/11 07:39:40;;;;;;;1.35;0.47;;;20.50;99.90;;;;;;5054008;28;20045;-64
2022/09/11 07:42:06;;;;;;;4.70;0.50;;;20.40;99.90;;;;;;5054221;28;20512;-69
2022/09/11 07:44:35;;;;;;;1.75;0.50;;;20.40;99.90;;;;;;5054432;28;20111;-63
2022/09/11 07:47:02;;;;;;;1.35;0.40;;;20.50;99.90;;;;;;5042129;28;20045;-64
2022/09/11 07:49:28;;;;;;;2.13;0.60;;;20.10;99.90;;;;;;5054104;28;20049;-68
2022/09/11 07:51:54;;;;;;;3.30;0.70;;;20.40;99.90;;;;;;5054048;28;20044;-69
2022/09/11 07:54:21;;;;;;;2.83;0.60;;;20.70;99.90;;;;;;5050365;28;20080;-63
2022/09/11 07:56:47;;;;;;;2.92;0.40;;;20.50;99.90;;;;;;5033517;28;20041;-63
2022/09/11 07:59:13;;;;;;;3.05;0.52;;;20.50;99.90;;;;;;5032446;28;20439;-69
2022/09/11 08:01:41;;;;;;;2.40;0.30;;;20.50;99.90;;;;;;5034083;28;20053;-64
2022/09/11 08:04:10;;;;;;;4.53;0.50;;;19.90;99.90;;;;;;5033950;28;20041;-64
2022/09/11 08:06:37;;;;;;;1.48;0.35;;;20.00;99.90;;;;;;5033927;28;20033;-64
2022/09/11 08:09:07;;;;;;;3.25;0.40;;;20.20;99.90;;;;;;5033911;28;20468;-68
2022/09/11 08:11:45;;;;;;;1.42;0.30;;;20.60;99.90;;;;;;5033942;28;20050;-64
2022/09/11 08:14:12;;;;;;;1.90;0.50;;;19.70;99.90;;;;;;5033868;28;20424;-63
2022/09/11 08:16:38;;;;;;;2.08;0.50;;;19.80;99.90;;;;;;5033989;28;20034;-67
2022/09/11 08:19:05;;;;;;;0.63;0.40;;;19.40;99.90;;;;;;5035894;28;20464;-63
2022/09/11 08:21:32;;;;;;;0.20;0.20;;;20.10;99.90;;;;;;5037801;28;20053;-64
2022/09/11 08:23:58;;;;;;;2.08;0.30;;;20.30;99.90;;;;;;5037969;28;20107;-64
2022/09/11 08:26:26;;;;;;;3.60;0.50;;;20.50;99.90;;;;;;5038006;28;20064;-70
2022/09/11 08:28:53;;;;;;;0.63;0.25;;;19.90;99.90;;;;;;5037758;28;20107;-64
2022/09/11 08:31:25;;;;;;;0.20;0.20;;;20.20;99.90;;;;;;5037829;28;20133;-63
2022/09/11 08:33:51;;;;;;;3.40;0.35;;;20.40;99.90;;;;;;5036413;28;20500;-64
2022/09/11 08:36:17;;;;;;;1.52;0.30;;;20.80;99.90;;;;;;5037502;28;20057;-68
2022/09/11 08:38:44;;;;;;;1.90;0.30;;;19.60;99.90;;;;;;5037430;28;20528;-66
2022/09/11 08:41:39;;;;;;;1.13;0.25;;;19.80;99.90;;;;;;5037536;28;20045;-63
2022/09/11 08:44:16;;;;;;;1.48;0.50;;;19.90;99.90;;;;;;5037344;28;20140;-67
2022/09/11 08:46:49;;;;;;;6.78;0.55;;;20.60;99.90;;;;;;5037382;28;20049;-64
2022/09/11 08:49:25;;;;;;;3.00;0.30;;;20.70;99.90;;;;;;5037469;28;20045;-66
2022/09/11 08:51:54;;;;;;;2.72;0.52;;;20.60;99.90;;;;;;5037633;28;20484;-65
2022/09/11 08:54:36;;;;;;;0.55;0.30;;;20.50;99.90;;;;;;5037090;28;20488;-65
2022/09/11 08:57:17;;;;;;;2.47;0.40;;;20.00;99.90;;;;;;5036912;28;20127;-64
2022/09/11 09:00:01;;;;;;;2.15;0.45;;;20.00;99.90;;;;;;5036984;28;20059;-64
2022/09/11 09:02:26;;;;;;;0.90;0.30;;;20.40;99.90;;;;;;5037188;28;20393;-64
2022/09/11 09:05:13;;;;;;;0.65;0.38;;;20.90;99.90;;;;;;5037236;28;20048;-64
2022/09/11 09:08:00;;;;;;;1.30;0.25;;;20.60;99.90;;;;;;5037004;28;20475;-63
2022/09/11 09:10:26;;;;;;;3.40;0.60;;;21.10;99.90;;;;;;5037129;28;20124;-63
2022/09/11 09:13:20;;;;;;;0.73;0.47;;;21.10;99.90;;;;;;5037102;28;20076;-64
2022/09/11 09:16:28;;;;;;;2.28;0.32;;;20.30;99.90;;;;;;5036834;28;20212;-64
2022/09/11 09:19:06;;;;;;;1.10;0.40;;;19.70;99.90;;;;;;5036460;28;20122;-69
2022/09/11 09:22:01;;;;;;;0.95;0.55;;;19.90;99.90;;;;;;5036616;28;20036;-63
2022/09/11 09:24:33;;;;;;;1.17;0.20;;;20.20;99.90;;;;;;5014851;28;20045;-68
2022/09/11 09:27:03;;;;;;;4.03;0.63;;;19.90;99.90;;;;;;5036550;28;20037;-63
2022/09/11 09:29:37;;;;;;;0.30;0.30;;;19.80;99.90;;;;;;5043992;28;20044;-68
2022/09/11 09:32:19;;;;;;;1.08;0.50;;;19.90;99.90;;;;;;5055387;28;20051;-63
2022/09/11 09:34:51;;;;;;;0.93;0.30;;;20.10;99.90;;;;;;5056521;28;20067;-63
2022/09/11 09:37:21;;;;;;;0.77;0.35;;;19.70;99.90;;;;;;5056442;28;20144;-66
2022/09/11 09:39:48;;;;;;;0.77;0.37;;;19.80;99.90;;;;;;5056450;28;20052;-64
2022/09/11 09:42:36;;;;;;;1.00;0.28;;;19.70;99.90;;;;;;5053755;28;20512;-63
2022/09/11 09:45:30;;;;;;;3.50;0.75;;;20.10;99.90;;;;;;5043612;28;20044;-63
2022/09/11 09:47:56;;;;;;;2.25;0.40;;;20.30;99.90;;;;;;5056346;28;20048;-63
2022/09/11 09:50:34;;;;;;;1.40;0.40;;;20.30;99.90;;;;;;5056474;28;20041;-68
2022/09/11 09:53:17;;;;;;;0.25;0.25;;;20.50;99.90;;;;;;5055954;28;20037;-63
2022/09/11 09:55:46;;;;;;;2.13;0.50;;;21.00;99.90;;;;;;5047362;28;20052;-63
2022/09/11 09:58:13;;;;;;;2.92;0.43;;;20.50;99.90;;;;;;5034385;28;20048;-62
2022/09/11 10:00:40;;;;;;;0.88;0.30;;;20.20;99.90;;;;;;5034386;28;20489;-63
2022/09/11 10:03:21;;;;;;;0.77;0.30;;;19.80;99.90;;;;;;5041054;28;20559;-63
2022/09/11 10:05:53;;;;;;;2.47;0.47;;;20.10;99.90;;;;;;5048903;28;20536;-63
2022/09/11 10:08:34;;;;;;;0.73;0.22;;;20.40;99.90;;;;;;5048470;28;20037;-63
2022/09/11 10:11:05;;;;;;;1.42;0.85;;;21.20;99.80;;;;;;5051479;28;20073;-63
2022/09/11 10:13:36;;;;;;;1.38;0.60;;;21.10;99.90;;;;;;5046405;28;20041;-62
2022/09/11 10:16:17;;;;;;;0.98;0.40;;;21.40;99.90;;;;;;5043567;28;20040;-63
2022/09/11 10:18:43;;;;;;;0.75;0.40;;;21.60;99.50;;;;;;5053356;28;20041;-62
2022/09/11 10:21:12;;;;;;;1.50;0.30;;;20.90;99.70;;;;;;5052685;28;20118;-62
2022/09/11 10:23:46;;;;;;;1.95;0.38;;;20.50;99.70;;;;;;5053115;28;20037;-69
2022/09/11 10:26:21;;;;;;;0.70;0.40;;;21.10;99.90;;;;;;5052996;28;20087;-63
2022/09/11 10:28:48;;;;;;;2.08;0.57;;;20.90;99.90;;;;;;5051438;28;20048;-61
2022/09/11 10:31:17;;;;;;;2.45;0.60;;;21.50;99.30;;;;;;5046537;28;20041;-63
2022/09/11 10:34:03;;;;;;;1.52;0.40;;;21.60;98.50;;;;;;5052927;28;20045;-63
2022/09/11 10:36:30;;;;;;;1.15;0.50;;;21.80;99.90;;;;;;5054822;28;20044;-63
2022/09/11 10:38:59;;;;;;;0.38;0.35;;;21.80;98.50;;;;;;5052410;28;20045;-63
2022/09/11 10:41:27;;;;;;;2.85;0.50;;;21.00;97.70;;;;;;5048390;28;20044;-63
2022/09/11 10:44:06;;;;;;;3.15;0.30;;;21.10;97.60;;;;;;5052960;28;20041;-63
2022/09/11 10:46:44;;;;;;;1.00;0.40;;;20.90;97.80;;;;;;5052748;28;20036;-63
2022/09/11 10:49:21;;;;;;;2.33;0.30;;;20.70;98.70;;;;;;5052359;28;20051;-63
2022/09/11 10:52:00;;;;;;;2.28;0.60;;;21.20;99.10;;;;;;5053109;28;20041;-63
2022/09/11 10:54:25;;;;;;;1.60;0.40;;;21.00;99.60;;;;;;5054464;28;20048;-63
2022/09/11 10:57:04;;;;;;;0.82;0.30;;;20.90;98.90;;;;;;5054780;28;20052;-62
2022/09/11 11:00:32;;;;;;;0.32;0.20;;;20.80;97.60;;;;;;5053161;28;20045;-66
2022/09/11 11:03:11;;;;;;;1.92;0.30;;;21.10;98.50;;;;;;5025702;28;20045;-64
2022/09/11 11:06:14;;;;;;;1.50;0.32;;;21.30;97.70;;;;;;5052559;28;20041;-63
2022/09/11 11:09:02;;;;;;;0.90;0.20;;;21.50;97.40;;;;;;5048487;28;20531;-63
2022/09/11 11:11:41;;;;;;;0.38;0.17;;;21.50;95.10;;;;;;5055231;28;20090;-63
2022/09/11 11:14:20;;;;;;;1.85;0.30;;;20.80;94.70;;;;;;5054946;28;20052;-63
2022/09/11 11:16:55;;;;;;;0.73;0.28;;;21.10;95.50;;;;;;5053262;28;20036;-63
2022/09/11 11:19:43;;;;;;;0.60;0.30;;;21.20;96.50;;;;;;5051865;28;20431;-63
2022/09/11 11:22:38;;;;;;;0.52;0.30;;;21.10;96.00;;;;;;5048308;28;20045;-69
2022/09/11 11:25:21;;;;;;;0.95;0.30;;;21.10;96.40;;;;;;5049947;28;20037;-64
2022/09/11 11:27:56;;;;;;;0.20;0.20;;;21.60;94.40;;;;;;5053270;28;20037;-63
2022/09/11 11:30:47;;;;;;;0.80;0.20;;;21.20;94.70;;;;;;5050957;28;20041;-67
2022/09/11 11:33:42;;;;;;;1.05;0.10;;;21.50;95.20;;;;;;5052380;28;20067;-69
2022/09/11 11:36:29;;;;;;;0.85;0.30;;;21.50;94.80;;;;;;5049891;28;20053;-65
2022/09/11 11:39:21;;;;;;;1.65;0.38;;;21.40;94.90;;;;;;5052743;28;20118;-63
2022/09/11 11:42:36;;;;;;;0.60;0.22;;;21.40;95.00;;;;;;5049867;28;20223;-67
2022/09/11 11:45:19;;;;;;;0.22;0.10;;;22.00;94.40;;;;;;5047873;28;20044;-63
2022/09/11 11:47:46;;;;;;;0.98;0.20;;;21.80;95.20;;;;;;5052134;28;20041;-63
2022/09/11 11:50:24;;;;;;;0.15;0.10;;;21.50;93.40;;;;;;5052919;28;20048;-68
2022/09/11 11:52:56;;;;;;;2.05;0.47;;;21.50;93.70;;;;;;5049260;28;20037;-67
2022/09/11 11:55:37;;;;;;;0.20;0.15;;;21.70;94.10;;;;;;5052149;28;20115;-63
2022/09/11 11:58:34;;;;;;;0.50;0.30;;;21.40;95.00;;;;;;5046744;28;20051;-67
2022/09/11 12:01:05;;;;;;;4.55;0.28;;;21.20;95.60;;;;;;5039518;28;20053;-64
2022/09/11 12:04:13;;;;;;;0.30;0.15;;;21.30;95.00;;;;;;5052658;28;21731;-68
2022/09/11 12:06:39;;;;;;;0.68;0.20;;;21.50;94.70;;;;;;5032712;28;20045;-67
2022/09/11 12:09:09;;;;;;;0.75;0.30;;;21.30;94.70;;;;;;5046906;28;20033;-63
2022/09/11 12:11:35;;;;;;;0.10;0.10;;;21.30;93.70;;;;;;5051329;28;20052;-68
2022/09/11 12:14:02;;;;;;;0.22;0.20;;;21.30;92.90;;;;;;5056568;28;20036;-63
2022/09/11 12:16:33;;;;;;;0.30;0.20;;;21.60;92.80;;;;;;5050203;28;20051;-63
2022/09/11 12:19:12;;;;;;;0.65;0.10;;;21.70;92.60;;;;;;5045155;28;20052;-63
2022/09/11 12:21:40;;;;;;;1.05;0.43;;;21.90;92.50;;;;;;5051164;28;20060;-63
2022/09/11 12:24:05;;;;;;;1.40;0.20;;;21.90;92.50;;;;;;5052478;28;20037;-63
2022/09/11 12:26:32;;;;;;;1.55;0.35;;;22.00;93.60;;;;;;5050906;28;20041;-63
2022/09/11 12:29:13;;;;;;;0.90;0.20;;;21.70;92.90;;;;;;5052086;28;20037;-63
2022/09/11 12:32:08;;;;;;;0.32;0.20;;;21.80;93.40;;;;;;5053147;28;20041;-63
2022/09/11 12:34:43;;;;;;;1.17;0.43;;;21.60;93.20;;;;;;5038250;28;20112;-63
2022/09/11 12:37:31;;;;;;;0.30;0.15;;;21.60;93.70;;;;;;5053502;28;20052;-63
2022/09/11 12:40:22;;;;;;;0.95;0.15;;;21.90;93.30;;;;;;5053717;28;20052;-63
2022/09/11 12:43:25;;;;;;;0.68;0.30;;;22.30;93.20;;;;;;5053772;28;20033;-63
2022/09/11 12:45:51;;;;;;;2.38;0.30;;;22.20;92.90;;;;;;5053604;28;20102;-63
2022/09/11 12:48:20;;;;;;;1.17;0.30;;;22.50;92.80;;;;;;5050887;28;20527;-67
2022/09/11 12:50:52;;;;;;;0.40;0.30;;;22.10;91.60;;;;;;5054869;28;20405;-62
2022/09/11 12:53:30;;;;;;;1.42;0.30;;;22.30;92.10;;;;;;5064527;28;20537;-62
2022/09/11 12:56:02;;;;;;;0.17;0.17;;;21.80;91.80;;;;;;5051308;28;20128;-62
2022/09/11 12:58:39;;;;;;;0.08;0.08;;;22.20;92.30;;;;;;5050472;28;20132;-63
2022/09/11 13:01:13;;;;;;;0.40;0.30;;;22.40;92.30;;;;;;5051101;28;20123;-62
2022/09/11 13:04:11;;;;;;;0.20;0.10;;;22.20;92.40;;;;;;5051253;28;20052;-61
2022/09/11 13:06:50;;;;;;;0.55;0.30;;;22.00;92.50;;;;;;5048720;28;20497;-70
2022/09/11 13:09:27;;;;;;;0.93;0.45;;;22.30;91.80;;;;;;5053268;28;20127;-62
2022/09/11 13:11:56;;;;;;;0.30;0.20;;;22.30;92.10;;;;;;5055659;28;20032;-62
2022/09/11 13:14:28;;;;;;;1.55;0.25;;;22.10;92.30;;;;;;5066222;28;20135;-62
2022/09/11 13:16:55;;;;;;;0.20;0.15;;;21.80;92.40;;;;;;5056171;28;20368;-61
2022/09/11 13:19:22;;;;;;;0.20;0.20;;;22.00;92.70;;;;;;5053907;28;20475;-62